Time;durP1;ratioP1;P1;durP2;ratioP2;P2;SDS_P1;SDS_P2;PMS_P1;PMS_P2;Temp;Humidity;BMP_temperature;BMP_pressure;BME280_temperature;BME280_humidity;BME280_pressure;Samples;Min_cycle;Max_cycle;Signal;HPM_P1;HPM_P2
2022/11/02 00:01:39;;;;;;;2.42;1.48;;;18.20;59.60;;;;;;5017185;28;20185;-69
2022/11/02 00:04:06;;;;;;;2.20;1.50;;;18.10;59.40;;;;;;5015591;28;20205;-69
2022/11/02 00:06:33;;;;;;;2.33;1.55;;;18.10;59.20;;;;;;5016295;28;20221;-69
2022/11/02 00:09:01;;;;;;;1.50;1.40;;;18.10;59.60;;;;;;5015624;28;20291;-69
2022/11/02 00:11:28;;;;;;;1.85;1.27;;;18.10;59.40;;;;;;5066310;22;20236;-68
2022/11/02 00:13:55;;;;;;;2.25;1.30;;;18.10;59.60;;;;;;5035519;28;20218;-68
2022/11/02 00:16:24;;;;;;;1.85;1.48;;;18.10;60.20;;;;;;5035309;28;20658;-68
2022/11/02 00:18:54;;;;;;;2.95;1.50;;;18.10;59.60;;;;;;5036388;28;20750;-68
2022/11/02 00:21:21;;;;;;;1.30;1.02;;;18.10;59.70;;;;;;5035033;28;20698;-68
2022/11/02 00:23:49;;;;;;;1.50;1.30;;;18.10;59.60;;;;;;5036333;28;20189;-68
2022/11/02 00:26:17;;;;;;;1.70;1.33;;;18.10;59.60;;;;;;5034818;28;20694;-68
2022/11/02 00:28:45;;;;;;;2.13;1.65;;;18.10;59.80;;;;;;5034744;28;20219;-68
2022/11/02 00:31:11;;;;;;;2.53;1.30;;;18.00;59.50;;;;;;5034848;28;20196;-68
2022/11/02 00:33:39;;;;;;;1.55;1.25;;;18.00;59.60;;;;;;5034786;28;20258;-68
2022/11/02 00:36:06;;;;;;;2.08;1.50;;;18.00;59.40;;;;;;5034488;28;20203;-68
2022/11/02 00:38:33;;;;;;;1.75;1.30;;;18.00;59.60;;;;;;5034495;28;20228;-68
2022/11/02 00:41:00;;;;;;;1.90;1.38;;;18.00;59.80;;;;;;5034801;28;20200;-68
2022/11/02 00:43:29;;;;;;;1.67;1.38;;;18.00;59.30;;;;;;5035293;28;20196;-68
2022/11/02 00:45:57;;;;;;;1.40;1.30;;;18.00;59.60;;;;;;5034170;28;20207;-67
2022/11/02 00:48:24;;;;;;;2.35;1.10;;;18.00;59.60;;;;;;5034660;28;20709;-67
2022/11/02 00:50:51;;;;;;;2.45;1.30;;;18.00;59.80;;;;;;5034493;28;20224;-67
2022/11/02 00:53:21;;;;;;;3.55;1.50;;;18.00;59.60;;;;;;5035303;28;20197;-67
2022/11/02 00:55:52;;;;;;;2.15;1.30;;;17.90;59.70;;;;;;5035205;28;20601;-67
2022/11/02 00:58:20;;;;;;;3.58;1.60;;;18.00;59.70;;;;;;5034248;28;20224;-67
2022/11/02 01:00:50;;;;;;;1.73;1.27;;;18.00;59.70;;;;;;5034263;28;20283;-67
2022/11/02 01:03:17;;;;;;;2.40;1.30;;;18.00;59.60;;;;;;5034684;28;20215;-67
2022/11/02 01:05:45;;;;;;;1.70;1.38;;;17.90;59.60;;;;;;5034404;28;20546;-67
2022/11/02 01:08:12;;;;;;;1.88;1.48;;;17.90;59.50;;;;;;5034172;28;20212;-67
2022/11/02 01:10:39;;;;;;;1.58;1.10;;;17.90;59.30;;;;;;5033939;28;20654;-67
2022/11/02 01:13:07;;;;;;;1.83;1.20;;;17.90;60.10;;;;;;5033737;28;20215;-67
2022/11/02 01:15:36;;;;;;;1.70;1.25;;;17.90;59.50;;;;;;5017026;28;20250;-67
2022/11/02 01:18:07;;;;;;;1.23;1.13;;;17.90;59.30;;;;;;5033366;28;20698;-67
2022/11/02 01:20:34;;;;;;;2.20;1.52;;;17.90;59.50;;;;;;5034611;28;20188;-67
2022/11/02 01:23:01;;;;;;;1.92;1.30;;;17.80;59.70;;;;;;5033369;28;20663;-67
2022/11/02 01:25:28;;;;;;;1.67;1.30;;;17.90;59.50;;;;;;5033474;28;20580;-68
2022/11/02 01:27:55;;;;;;;2.35;1.50;;;17.90;59.50;;;;;;5033887;28;20227;-68
2022/11/02 01:30:22;;;;;;;3.08;1.33;;;17.80;59.60;;;;;;5034410;28;20266;-68
2022/11/02 01:32:50;;;;;;;1.20;1.00;;;17.80;59.90;;;;;;5033707;28;20208;-68
2022/11/02 01:35:18;;;;;;;1.48;1.30;;;17.80;59.30;;;;;;5033366;28;20200;-68
2022/11/02 01:37:46;;;;;;;1.80;1.10;;;17.80;59.60;;;;;;5033233;28;20690;-67
2022/11/02 01:40:13;;;;;;;1.85;1.40;;;17.80;59.80;;;;;;5033286;28;20246;-67
2022/11/02 01:42:40;;;;;;;2.50;1.20;;;17.80;59.60;;;;;;5033120;28;20290;-67
2022/11/02 01:45:09;;;;;;;1.40;1.30;;;17.80;59.40;;;;;;5033027;28;20207;-67
2022/11/02 01:47:37;;;;;;;1.98;1.20;;;17.80;59.70;;;;;;5032993;28;20685;-67
2022/11/02 01:50:06;;;;;;;1.85;1.25;;;17.80;59.60;;;;;;5034172;28;20188;-67
2022/11/02 01:52:36;;;;;;;2.10;1.50;;;17.80;59.70;;;;;;5033928;28;20196;-67
2022/11/02 01:55:06;;;;;;;1.77;1.20;;;17.80;59.70;;;;;;5034121;28;20199;-67
2022/11/02 01:57:33;;;;;;;2.40;1.50;;;17.80;59.80;;;;;;5032390;28;20232;-67
2022/11/02 02:00:04;;;;;;;1.27;1.10;;;17.80;59.60;;;;;;5032349;28;20540;-67
2022/11/02 02:02:43;;;;;;;2.85;1.20;;;17.80;59.70;;;;;;5033831;28;20195;-67
2022/11/02 02:05:11;;;;;;;2.42;1.40;;;17.80;59.70;;;;;;5032734;28;20188;-67
2022/11/02 02:07:39;;;;;;;1.92;1.45;;;17.80;59.80;;;;;;5032296;28;20542;-67
2022/11/02 02:10:07;;;;;;;1.58;1.20;;;17.80;59.50;;;;;;5032381;28;20200;-67
2022/11/02 02:13:09;;;;;;;1.50;1.40;;;17.80;59.90;;;;;;5111057;27;20975;-54
2022/11/02 02:15:40;;;;;;;3.22;1.35;;;17.80;59.70;;;;;;5110109;28;20193;-54
2022/11/02 02:18:11;;;;;;;1.30;1.20;;;17.80;59.60;;;;;;5109764;28;20217;-53
2022/11/02 02:20:57;;;;;;;2.05;1.13;;;17.80;59.80;;;;;;5109510;28;20220;-53
2022/11/02 02:23:58;;;;;;;1.77;1.20;;;17.80;59.50;;;;;;5109431;28;20284;-54
2022/11/02 02:26:42;;;;;;;1.40;1.30;;;17.70;59.60;;;;;;5109517;28;20197;-54
2022/11/02 02:29:11;;;;;;;2.17;1.48;;;17.70;59.60;;;;;;5109356;28;20216;-54
2022/11/02 02:31:40;;;;;;;3.13;1.40;;;17.70;59.70;;;;;;5109260;28;20209;-53
2022/11/02 02:34:09;;;;;;;2.60;1.55;;;17.70;59.50;;;;;;5110772;28;20186;-54
2022/11/02 02:36:42;;;;;;;1.70;1.40;;;17.70;59.70;;;;;;5109403;28;20188;-54
2022/11/02 02:39:12;;;;;;;1.50;1.40;;;17.70;59.70;;;;;;5110528;28;20241;-54
2022/11/02 02:41:43;;;;;;;2.20;1.50;;;17.70;59.50;;;;;;5109373;28;20601;-54
2022/11/02 02:44:14;;;;;;;1.65;1.38;;;17.70;59.70;;;;;;5110588;28;20258;-54
2022/11/02 02:46:43;;;;;;;2.30;1.40;;;17.70;59.70;;;;;;5109109;28;20611;-54
2022/11/02 02:49:13;;;;;;;2.13;1.30;;;17.70;59.60;;;;;;5110554;28;20216;-54
2022/11/02 02:51:40;;;;;;;2.03;1.50;;;17.70;59.70;;;;;;5108950;28;20210;-54
2022/11/02 02:54:10;;;;;;;1.50;1.38;;;17.70;59.40;;;;;;5109271;28;20193;-53
2022/11/02 02:56:38;;;;;;;1.52;1.27;;;17.70;59.50;;;;;;5108865;28;20225;-54
2022/11/02 02:59:07;;;;;;;1.35;1.25;;;17.70;59.50;;;;;;5108811;28;20304;-53
2022/11/02 03:01:35;;;;;;;1.50;1.40;;;17.70;59.70;;;;;;5108869;28;20246;-53
2022/11/02 03:04:02;;;;;;;1.50;1.40;;;17.70;59.50;;;;;;5108958;28;20204;-57
2022/11/02 03:06:30;;;;;;;3.22;1.40;;;17.70;59.50;;;;;;5108824;28;20286;-53
2022/11/02 03:09:05;;;;;;;1.70;1.50;;;17.70;59.50;;;;;;5110134;28;20225;-53
2022/11/02 03:11:34;;;;;;;2.03;1.42;;;17.70;59.70;;;;;;5108768;28;20707;-53
2022/11/02 03:14:07;;;;;;;1.77;1.48;;;17.70;59.50;;;;;;5108600;28;20204;-53
2022/11/02 03:16:54;;;;;;;2.28;1.58;;;17.70;59.70;;;;;;5109376;28;20234;-53
2022/11/02 03:19:24;;;;;;;1.60;1.50;;;17.70;59.40;;;;;;5108570;28;20217;-53
2022/11/02 03:21:56;;;;;;;3.63;1.48;;;17.70;59.50;;;;;;5108686;28;20611;-54
2022/11/02 03:24:26;;;;;;;2.65;1.67;;;17.70;59.60;;;;;;5095460;28;20236;-53
2022/11/02 03:26:58;;;;;;;2.63;1.60;;;17.70;59.60;;;;;;5094843;28;20255;-53
2022/11/02 03:29:27;;;;;;;1.73;1.40;;;17.60;59.50;;;;;;5094816;28;20620;-54
2022/11/02 03:31:58;;;;;;;1.50;1.40;;;17.60;59.70;;;;;;5095968;28;20234;-53
2022/11/02 03:34:28;;;;;;;1.63;1.50;;;17.60;59.50;;;;;;5094771;28;20197;-53
2022/11/02 03:37:01;;;;;;;2.25;1.40;;;17.60;59.70;;;;;;5094643;28;20224;-53
2022/11/02 03:39:31;;;;;;;2.60;1.58;;;17.60;59.50;;;;;;5094583;28;20218;-53
2022/11/02 03:41:59;;;;;;;1.55;1.45;;;17.60;59.70;;;;;;5094675;28;20197;-54
2022/11/02 03:44:26;;;;;;;1.38;1.20;;;17.60;59.80;;;;;;5094641;28;20200;-53
2022/11/02 03:46:58;;;;;;;1.55;1.30;;;17.70;59.60;;;;;;5094934;28;20684;-53
2022/11/02 03:49:27;;;;;;;1.83;1.60;;;17.60;59.40;;;;;;5095392;28;20296;-54
2022/11/02 03:51:54;;;;;;;3.20;1.60;;;17.60;59.70;;;;;;5094640;28;20683;-54
2022/11/02 03:54:25;;;;;;;2.05;1.40;;;17.60;59.70;;;;;;5094864;28;20194;-54
2022/11/02 03:56:54;;;;;;;1.60;1.50;;;17.60;59.60;;;;;;5094601;28;20329;-54
2022/11/02 03:59:22;;;;;;;1.60;1.25;;;17.60;59.70;;;;;;5094569;28;20225;-53
2022/11/02 04:01:50;;;;;;;1.55;1.45;;;17.60;59.60;;;;;;5100908;28;20277;-54
2022/11/02 04:04:21;;;;;;;1.70;1.40;;;17.60;59.40;;;;;;5110867;28;20227;-54
2022/11/02 04:06:48;;;;;;;1.90;1.50;;;17.60;59.30;;;;;;5103822;28;20612;-54
2022/11/02 04:09:17;;;;;;;1.63;1.40;;;17.60;59.20;;;;;;5097098;28;20271;-54
2022/11/02 04:14:40;;;;;;;1.85;1.40;;;17.60;59.10;;;;;;5094900;28;20667;-54
2022/11/02 04:20:16;;;;;;;2.13;1.40;;;17.60;59.80;;;;;;4997765;28;20216;-54
2022/11/02 04:25:27;;;;;;;1.63;1.20;;;17.60;59.50;;;;;;5012182;28;20280;-53
2022/11/02 04:28:14;;;;;;;1.90;1.48;;;17.70;59.80;;;;;;5094959;28;20202;-53
2022/11/02 04:30:58;;;;;;;2.42;1.65;;;17.70;59.70;;;;;;5093801;28;20628;-53
2022/11/02 04:33:34;;;;;;;2.38;1.30;;;17.70;59.50;;;;;;5094796;28;20246;-54
2022/11/02 04:36:18;;;;;;;2.40;1.52;;;17.70;59.50;;;;;;5094192;28;20189;-54
2022/11/02 04:38:49;;;;;;;1.92;1.50;;;17.70;59.40;;;;;;5093914;28;20737;-54
2022/11/02 04:41:41;;;;;;;2.10;1.40;;;17.70;59.30;;;;;;5093785;28;20186;-54
2022/11/02 04:44:29;;;;;;;1.85;1.20;;;17.70;59.30;;;;;;5093447;28;20198;-53
2022/11/02 04:47:06;;;;;;;1.45;1.35;;;17.70;59.90;;;;;;5093235;28;20201;-53
2022/11/02 04:49:35;;;;;;;1.75;1.33;;;17.70;59.30;;;;;;5093123;28;20214;-53
2022/11/02 04:52:06;;;;;;;1.50;1.40;;;17.70;59.30;;;;;;5093090;28;20537;-53
2022/11/02 04:54:35;;;;;;;1.40;1.23;;;17.70;59.20;;;;;;5093153;28;20198;-54
2022/11/02 04:57:04;;;;;;;1.48;1.30;;;17.80;59.40;;;;;;5093173;28;20562;-53
2022/11/02 04:59:33;;;;;;;1.95;1.42;;;17.70;59.30;;;;;;5093339;28;20221;-53
2022/11/02 05:02:00;;;;;;;1.50;1.40;;;17.80;59.30;;;;;;5094476;28;20219;-53
2022/11/02 05:04:28;;;;;;;1.33;1.20;;;17.80;59.40;;;;;;5093132;28;20251;-53
2022/11/02 05:06:56;;;;;;;1.63;1.48;;;17.80;59.20;;;;;;5094249;28;20189;-54
2022/11/02 05:09:25;;;;;;;1.23;1.20;;;17.80;59.10;;;;;;5093029;28;20220;-54
2022/11/02 05:11:52;;;;;;;1.40;1.30;;;17.80;59.20;;;;;;5093979;28;20210;-53
2022/11/02 05:14:19;;;;;;;4.60;1.30;;;17.80;58.90;;;;;;5092802;28;20622;-53
2022/11/02 05:16:47;;;;;;;1.27;1.00;;;17.80;59.20;;;;;;5092875;28;20190;-53
2022/11/02 05:19:14;;;;;;;1.95;1.17;;;17.80;59.30;;;;;;5092812;28;20252;-53
2022/11/02 05:21:44;;;;;;;1.50;1.23;;;17.80;59.20;;;;;;5092572;28;20290;-54
2022/11/02 05:24:11;;;;;;;1.38;1.23;;;17.80;59.10;;;;;;5093322;28;20194;-53
2022/11/02 05:26:40;;;;;;;2.60;1.40;;;17.80;59.10;;;;;;5092870;28;20623;-53
2022/11/02 05:29:08;;;;;;;1.80;1.30;;;17.80;59.10;;;;;;5092584;28;20305;-54
2022/11/02 05:31:36;;;;;;;1.40;1.30;;;17.80;59.10;;;;;;5092574;28;20194;-53
2022/11/02 05:34:03;;;;;;;1.13;1.00;;;17.80;59.30;;;;;;5093617;28;20537;-53
2022/11/02 05:36:31;;;;;;;1.52;1.42;;;17.80;59.30;;;;;;5092273;28;20610;-53
2022/11/02 05:38:59;;;;;;;2.25;1.50;;;17.70;59.10;;;;;;5092127;28;20214;-53
2022/11/02 05:41:26;;;;;;;1.58;1.25;;;17.70;59.10;;;;;;5092171;28;20323;-53
2022/11/02 05:43:57;;;;;;;1.55;1.42;;;17.70;59.00;;;;;;5092108;28;20237;-53
2022/11/02 05:46:28;;;;;;;2.17;1.30;;;17.70;59.00;;;;;;5091954;28;20258;-53
2022/11/02 05:48:55;;;;;;;1.38;1.10;;;17.70;59.00;;;;;;5093443;28;20206;-53
2022/11/02 05:51:22;;;;;;;1.77;1.30;;;17.70;59.30;;;;;;5093375;28;20255;-53
2022/11/02 05:53:49;;;;;;;1.55;1.20;;;17.70;59.10;;;;;;5093370;28;20202;-53
2022/11/02 05:56:17;;;;;;;1.52;1.42;;;17.70;59.00;;;;;;5093412;28;20194;-54
2022/11/02 05:58:45;;;;;;;1.75;1.27;;;17.70;58.80;;;;;;5091898;28;20565;-53
2022/11/02 06:01:14;;;;;;;2.58;1.50;;;17.70;58.80;;;;;;5093732;28;20664;-53
2022/11/02 06:03:41;;;;;;;1.48;1.38;;;17.70;58.90;;;;;;5093369;28;20182;-52
2022/11/02 06:06:11;;;;;;;1.50;1.38;;;17.70;59.10;;;;;;5092132;28;20710;-53
2022/11/02 06:08:38;;;;;;;2.88;1.75;;;17.70;58.70;;;;;;5093324;28;20675;-53
2022/11/02 06:11:06;;;;;;;1.48;1.38;;;17.70;58.80;;;;;;5105456;22;20299;-68
2022/11/02 06:13:33;;;;;;;1.65;1.30;;;17.70;58.90;;;;;;4999492;28;20216;-68
2022/11/02 06:16:01;;;;;;;1.67;1.23;;;17.60;58.80;;;;;;5015909;28;20195;-68
2022/11/02 06:18:30;;;;;;;1.63;1.40;;;17.60;58.70;;;;;;5015782;28;20211;-68
2022/11/02 06:20:57;;;;;;;2.78;1.40;;;17.60;58.80;;;;;;5015802;28;20200;-69
2022/11/02 06:23:24;;;;;;;1.40;1.30;;;17.60;58.90;;;;;;5033497;28;20188;-69
2022/11/02 06:25:52;;;;;;;2.85;1.40;;;17.60;59.00;;;;;;5016303;28;20203;-69
2022/11/02 06:28:19;;;;;;;1.50;1.40;;;17.60;58.90;;;;;;5015897;28;20226;-69
2022/11/02 06:30:48;;;;;;;1.40;1.30;;;17.60;59.20;;;;;;5015650;28;20203;-69
2022/11/02 06:33:15;;;;;;;1.73;1.50;;;17.60;58.80;;;;;;5016552;28;20250;-69
2022/11/02 06:35:46;;;;;;;3.15;1.60;;;17.60;58.70;;;;;;5016149;28;20200;-69
2022/11/02 06:38:13;;;;;;;1.63;1.50;;;17.60;58.70;;;;;;5018252;28;20224;-69
2022/11/02 06:40:40;;;;;;;1.50;1.40;;;17.60;58.80;;;;;;5020128;28;20207;-69
2022/11/02 06:43:07;;;;;;;4.05;1.52;;;17.60;58.70;;;;;;5027164;28;20200;-68
2022/11/02 06:45:34;;;;;;;1.80;1.50;;;17.60;58.60;;;;;;5033989;28;20189;-68
2022/11/02 06:48:02;;;;;;;1.58;1.48;;;17.70;58.80;;;;;;5033898;28;20262;-69
2022/11/02 06:50:29;;;;;;;1.90;1.70;;;17.60;58.70;;;;;;5015966;28;20204;-69
2022/11/02 06:52:57;;;;;;;1.45;1.35;;;17.70;58.70;;;;;;5015517;28;20220;-69
2022/11/02 06:55:25;;;;;;;1.70;1.60;;;17.70;58.70;;;;;;5015695;28;20686;-69
2022/11/02 06:57:52;;;;;;;2.38;1.70;;;17.70;58.80;;;;;;5015800;28;20248;-69
2022/11/02 07:00:20;;;;;;;2.47;1.60;;;17.70;58.60;;;;;;5019480;28;20295;-69
2022/11/02 07:02:46;;;;;;;2.17;1.60;;;17.70;58.60;;;;;;5019496;28;20202;-69
2022/11/02 07:05:14;;;;;;;1.70;1.60;;;17.70;58.70;;;;;;5019216;28;20211;-69
2022/11/02 07:07:41;;;;;;;1.80;1.50;;;17.70;58.70;;;;;;5019825;28;20255;-69
2022/11/02 07:10:10;;;;;;;2.53;1.95;;;17.70;58.90;;;;;;5019003;28;20196;-69
2022/11/02 07:12:37;;;;;;;1.60;1.50;;;17.70;59.00;;;;;;5018846;28;20224;-69
2022/11/02 07:15:05;;;;;;;2.60;2.13;;;17.70;59.10;;;;;;5036933;28;20191;-69
2022/11/02 07:17:32;;;;;;;2.08;1.88;;;17.80;59.10;;;;;;5036633;28;20550;-69
2022/11/02 07:19:59;;;;;;;2.88;1.73;;;17.80;59.10;;;;;;5018853;28;20204;-69
2022/11/02 07:22:26;;;;;;;2.10;1.90;;;17.80;59.10;;;;;;5036841;28;20271;-69
2022/11/02 07:24:53;;;;;;;2.38;1.92;;;17.80;59.00;;;;;;5002451;28;20710;-69
2022/11/02 07:27:22;;;;;;;2.65;1.90;;;17.80;59.10;;;;;;5018625;28;20208;-69
2022/11/02 07:29:49;;;;;;;2.55;2.10;;;17.90;59.10;;;;;;5018751;28;20203;-69
2022/11/02 07:32:15;;;;;;;2.85;2.10;;;17.90;59.00;;;;;;5018682;28;20204;-69
2022/11/02 07:34:43;;;;;;;2.53;1.95;;;17.90;58.90;;;;;;5036115;28;20575;-69
2022/11/02 07:37:10;;;;;;;4.15;1.90;;;18.00;59.00;;;;;;5018418;28;20227;-69
2022/11/02 07:39:37;;;;;;;2.47;1.63;;;18.10;58.90;;;;;;5018456;28;20192;-69
2022/11/02 07:42:05;;;;;;;2.25;1.85;;;18.10;58.90;;;;;;5018500;28;20226;-69
2022/11/02 07:44:34;;;;;;;3.88;2.00;;;18.20;58.90;;;;;;5018317;28;20207;-69
2022/11/02 07:47:01;;;;;;;3.72;2.03;;;18.20;58.80;;;;;;5018389;28;20258;-69
2022/11/02 07:49:28;;;;;;;2.38;2.08;;;18.30;58.70;;;;;;5035921;28;20192;-69
2022/11/02 07:51:56;;;;;;;2.35;1.92;;;18.40;58.80;;;;;;5017992;28;20207;-68
2022/11/02 07:54:23;;;;;;;2.65;1.90;;;18.40;58.50;;;;;;5018497;28;20219;-68
2022/11/02 07:56:50;;;;;;;4.35;2.03;;;18.40;58.40;;;;;;5017893;28;20250;-69
2022/11/02 07:59:17;;;;;;;2.05;1.85;;;18.40;58.30;;;;;;5018416;28;20192;-69
2022/11/02 08:01:46;;;;;;;2.33;2.10;;;18.50;58.40;;;;;;5018049;28;20200;-69
2022/11/02 08:04:13;;;;;;;2.38;1.83;;;18.50;58.40;;;;;;5017848;28;20207;-69
2022/11/02 08:06:41;;;;;;;2.15;1.95;;;18.60;58.50;;;;;;5017968;28;20206;-70
2022/11/02 08:09:08;;;;;;;2.20;1.90;;;18.60;58.30;;;;;;5035295;28;20214;-69
2022/11/02 08:11:35;;;;;;;2.55;1.88;;;18.60;58.40;;;;;;5035631;28;20200;-69
2022/11/02 08:14:02;;;;;;;3.10;2.03;;;18.70;58.40;;;;;;5035746;28;20208;-69
2022/11/02 08:16:29;;;;;;;2.13;1.90;;;18.70;58.50;;;;;;5017792;28;20209;-69
2022/11/02 08:18:58;;;;;;;2.60;2.00;;;18.70;58.30;;;;;;5017664;28;20278;-69
2022/11/02 08:21:26;;;;;;;3.05;2.20;;;18.80;58.40;;;;;;5035623;28;20203;-69
2022/11/02 08:23:54;;;;;;;3.17;2.05;;;18.80;58.30;;;;;;5035739;28;20200;-69
2022/11/02 08:26:21;;;;;;;2.13;1.90;;;18.90;58.20;;;;;;5017602;28;20204;-69
2022/11/02 08:28:48;;;;;;;2.38;2.08;;;18.90;58.10;;;;;;5017723;28;20216;-69
2022/11/02 08:31:16;;;;;;;2.53;2.13;;;18.90;58.00;;;;;;5017677;28;20741;-69
2022/11/02 08:33:43;;;;;;;2.65;1.90;;;19.00;58.10;;;;;;5017658;28;20216;-69
2022/11/02 08:36:12;;;;;;;4.25;2.15;;;19.00;58.00;;;;;;5017736;28;20207;-69
2022/11/02 08:38:40;;;;;;;1.80;1.60;;;19.10;57.90;;;;;;5035416;28;20212;-70
2022/11/02 08:41:07;;;;;;;1.73;1.63;;;19.10;57.70;;;;;;5018110;28;20207;-69
2022/11/02 08:43:34;;;;;;;2.42;1.95;;;19.20;57.70;;;;;;5018527;28;20192;-69
2022/11/02 08:46:01;;;;;;;2.58;2.05;;;19.20;57.60;;;;;;5002036;28;20211;-69
2022/11/02 08:48:29;;;;;;;3.15;1.67;;;19.20;57.50;;;;;;5017480;28;20219;-69
2022/11/02 08:50:56;;;;;;;2.13;1.70;;;19.20;57.40;;;;;;5035369;28;20194;-69
2022/11/02 08:53:24;;;;;;;3.55;2.10;;;19.30;57.50;;;;;;5017356;28;20220;-69
2022/11/02 08:55:51;;;;;;;2.78;1.60;;;19.30;57.40;;;;;;5035204;28;20697;-69
2022/11/02 08:58:18;;;;;;;3.47;1.95;;;19.30;57.40;;;;;;5017454;28;20220;-69
2022/11/02 09:00:46;;;;;;;2.65;2.00;;;19.30;57.40;;;;;;5017388;28;20195;-69
2022/11/02 09:03:13;;;;;;;1.77;1.55;;;19.30;57.30;;;;;;5017736;28;20188;-69
2022/11/02 09:05:41;;;;;;;2.70;1.75;;;19.40;57.30;;;;;;5035264;28;20185;-69
2022/11/02 09:08:10;;;;;;;1.85;1.75;;;19.40;57.20;;;;;;5017916;28;20239;-69
2022/11/02 09:10:39;;;;;;;2.33;1.60;;;19.40;57.30;;;;;;5018177;28;20208;-69
2022/11/02 09:13:07;;;;;;;2.13;1.70;;;19.40;57.30;;;;;;5019936;28;20208;-69
2022/11/02 09:15:36;;;;;;;2.03;1.80;;;19.40;57.20;;;;;;5021650;28;20196;-69
2022/11/02 09:18:03;;;;;;;1.95;1.73;;;19.50;57.20;;;;;;5018877;28;20224;-69
2022/11/02 09:20:30;;;;;;;3.72;1.67;;;19.50;57.10;;;;;;5037359;28;20651;-69
2022/11/02 09:22:57;;;;;;;5.25;1.92;;;19.50;57.10;;;;;;5019211;28;20207;-69
2022/11/02 09:25:24;;;;;;;2.80;1.70;;;19.50;57.00;;;;;;5035407;28;20192;-69
2022/11/02 09:27:54;;;;;;;2.30;1.73;;;19.50;57.00;;;;;;5035097;28;20214;-69
2022/11/02 09:30:21;;;;;;;2.63;1.90;;;19.50;57.60;;;;;;5018009;28;20200;-69
2022/11/02 09:32:54;;;;;;;2.50;2.15;;;19.60;57.10;;;;;;5017459;28;20206;-69
2022/11/02 09:35:20;;;;;;;2.72;1.98;;;19.60;57.10;;;;;;5016907;28;20220;-70
2022/11/02 09:37:48;;;;;;;3.15;2.00;;;19.50;57.00;;;;;;5017341;28;20216;-70
2022/11/02 09:40:37;;;;;;;3.65;2.00;;;19.60;57.10;;;;;;5034939;28;20184;-70
2022/11/02 09:43:09;;;;;;;1.70;1.60;;;19.60;57.10;;;;;;5016849;28;20658;-70
2022/11/02 09:45:39;;;;;;;2.20;1.58;;;19.60;57.10;;;;;;5016811;28;20196;-69
2022/11/02 09:48:07;;;;;;;2.67;1.70;;;19.60;57.10;;;;;;5016481;28;20212;-69
2022/11/02 09:50:41;;;;;;;1.70;1.60;;;19.60;57.10;;;;;;5016320;28;20204;-69
2022/11/02 09:53:08;;;;;;;1.80;1.50;;;19.60;57.10;;;;;;5016405;28;20192;-69
2022/11/02 09:55:36;;;;;;;2.85;1.70;;;19.70;57.00;;;;;;5016718;28;20200;-69
2022/11/02 09:58:05;;;;;;;2.20;1.40;;;19.70;57.00;;;;;;5017025;28;20215;-69
2022/11/02 10:00:36;;;;;;;1.63;1.52;;;19.70;56.80;;;;;;5016341;28;20661;-69
2022/11/02 10:03:07;;;;;;;1.85;1.60;;;19.80;56.90;;;;;;5016714;28;20196;-69
2022/11/02 10:05:39;;;;;;;1.85;1.55;;;19.80;56.90;;;;;;5016599;28;20299;-69
2022/11/02 10:08:25;;;;;;;2.42;1.60;;;19.80;56.80;;;;;;5016242;28;20310;-69
2022/11/02 10:11:02;;;;;;;2.58;1.50;;;19.80;56.70;;;;;;5024389;28;20216;-69
2022/11/02 10:13:34;;;;;;;1.45;1.30;;;19.80;56.60;;;;;;5016304;28;20215;-69
2022/11/02 10:16:05;;;;;;;1.63;1.52;;;19.90;56.70;;;;;;5016149;28;20192;-69
2022/11/02 10:18:32;;;;;;;1.75;1.50;;;19.90;56.60;;;;;;5016239;28;20216;-69
2022/11/02 10:21:20;;;;;;;2.85;1.60;;;19.90;56.60;;;;;;5034041;28;20191;-69
2022/11/02 10:23:49;;;;;;;1.92;1.40;;;19.90;56.40;;;;;;5016144;28;20192;-69
2022/11/02 10:26:18;;;;;;;3.05;1.40;;;19.90;56.30;;;;;;5015977;28;20206;-69
2022/11/02 10:28:49;;;;;;;3.00;1.50;;;20.00;56.30;;;;;;5016115;28;20589;-69
2022/11/02 10:31:22;;;;;;;1.92;1.58;;;20.00;56.20;;;;;;5033816;28;20215;-69
2022/11/02 10:33:49;;;;;;;1.48;1.30;;;20.00;56.20;;;;;;5017681;28;20219;-69
2022/11/02 10:36:24;;;;;;;2.47;1.63;;;20.00;56.10;;;;;;5019986;28;20218;-69
2022/11/02 10:38:59;;;;;;;2.17;1.63;;;20.00;56.20;;;;;;5037488;28;20212;-69
2022/11/02 10:41:37;;;;;;;2.38;1.33;;;20.00;56.00;;;;;;5019570;28;20202;-69
2022/11/02 10:44:16;;;;;;;1.80;1.40;;;20.00;56.60;;;;;;5037755;28;20188;-69
2022/11/02 10:46:57;;;;;;;1.63;1.35;;;20.00;56.10;;;;;;5019662;28;20208;-70
2022/11/02 10:49:38;;;;;;;2.50;1.50;;;20.10;56.10;;;;;;5019847;28;20211;-70
2022/11/02 10:52:05;;;;;;;2.28;1.55;;;20.10;56.10;;;;;;5019457;28;20504;-70
2022/11/02 10:54:32;;;;;;;2.72;1.65;;;20.00;56.50;;;;;;5019683;28;20216;-70
2022/11/02 10:56:59;;;;;;;2.58;1.40;;;20.10;56.00;;;;;;5019492;28;20200;-69
2022/11/02 10:59:28;;;;;;;2.47;1.30;;;20.10;56.00;;;;;;5037220;28;20196;-69
2022/11/02 11:02:08;;;;;;;1.45;1.23;;;20.10;55.90;;;;;;5019268;28;20207;-69
2022/11/02 11:04:35;;;;;;;1.40;1.30;;;20.10;55.90;;;;;;5019222;28;20227;-69
2022/11/02 11:07:04;;;;;;;1.40;1.30;;;20.10;55.90;;;;;;5019327;28;20200;-70
2022/11/02 11:09:39;;;;;;;2.67;1.50;;;20.10;56.00;;;;;;5019165;28;20203;-70
2022/11/02 11:12:07;;;;;;;1.35;1.20;;;20.10;56.10;;;;;;5037265;28;20214;-70
2022/11/02 11:14:36;;;;;;;1.67;1.33;;;20.10;56.00;;;;;;5019101;28;20216;-70
2022/11/02 11:17:03;;;;;;;2.13;1.48;;;20.10;56.10;;;;;;5020948;28;20203;-69
2022/11/02 11:19:33;;;;;;;1.55;1.45;;;20.10;56.10;;;;;;5022012;28;20620;-70
2022/11/02 11:22:00;;;;;;;1.83;1.45;;;20.10;56.10;;;;;;5019136;28;20252;-70
2022/11/02 11:24:32;;;;;;;1.90;1.40;;;20.10;56.10;;;;;;5019249;28;20287;-70
2022/11/02 11:27:14;;;;;;;1.90;1.35;;;20.00;56.00;;;;;;5019247;28;20247;-70
2022/11/02 11:29:50;;;;;;;3.05;1.70;;;20.00;56.00;;;;;;5019654;28;20200;-70
2022/11/02 11:32:18;;;;;;;1.73;1.35;;;20.10;56.10;;;;;;5037773;28;20176;-70
2022/11/02 11:34:50;;;;;;;2.13;1.33;;;20.00;56.10;;;;;;5038202;28;20203;-70
2022/11/02 11:37:17;;;;;;;2.25;1.45;;;20.00;56.60;;;;;;5020164;28;20219;-69
2022/11/02 11:39:45;;;;;;;1.50;1.35;;;20.00;56.00;;;;;;5037492;28;20659;-69
2022/11/02 11:42:17;;;;;;;2.15;1.40;;;20.00;55.90;;;;;;5037296;28;20188;-69
2022/11/02 11:44:55;;;;;;;2.60;1.70;;;20.00;56.00;;;;;;5019150;28;20273;-69
2022/11/02 11:47:27;;;;;;;1.70;1.40;;;20.00;56.00;;;;;;5037944;28;20706;-69
2022/11/02 11:49:54;;;;;;;1.63;1.40;;;20.00;56.00;;;;;;5019829;28;20227;-69
2022/11/02 11:52:23;;;;;;;1.38;1.23;;;20.00;56.00;;;;;;5019749;28;20204;-69
2022/11/02 11:54:54;;;;;;;2.53;1.50;;;20.00;56.00;;;;;;5019430;28;20224;-69
2022/11/02 11:57:28;;;;;;;2.08;1.40;;;20.00;56.10;;;;;;5018873;28;20231;-70
2022/11/02 11:59:58;;;;;;;1.83;1.30;;;20.00;56.00;;;;;;5018634;28;20283;-69
2022/11/02 12:02:26;;;;;;;1.38;1.10;;;20.00;56.10;;;;;;5018697;28;20227;-69
2022/11/02 12:04:58;;;;;;;1.50;1.40;;;20.10;56.20;;;;;;5018480;28;20188;-69
2022/11/02 12:07:35;;;;;;;1.45;1.25;;;20.10;56.20;;;;;;5018600;28;20230;-69
2022/11/02 12:10:07;;;;;;;1.50;1.30;;;20.10;56.20;;;;;;5035874;28;20192;-69
2022/11/02 12:12:42;;;;;;;2.75;1.60;;;20.20;56.10;;;;;;5018619;28;20670;-69
2022/11/02 12:15:16;;;;;;;1.75;1.40;;;20.20;56.10;;;;;;5017992;28;20608;-69
2022/11/02 12:17:51;;;;;;;2.30;1.50;;;20.30;55.90;;;;;;5035471;28;20318;-69
2022/11/02 12:20:47;;;;;;;2.60;1.20;;;20.30;55.80;;;;;;5017997;28;20198;-69
2022/11/02 12:23:33;;;;;;;1.55;1.40;;;20.40;55.90;;;;;;5017695;28;20223;-69
2022/11/02 12:26:06;;;;;;;1.48;1.38;;;20.40;55.70;;;;;;5035935;28;20188;-69
2022/11/02 12:28:40;;;;;;;1.92;1.23;;;20.50;55.70;;;;;;5017323;28;20231;-69
2022/11/02 12:31:14;;;;;;;2.47;1.30;;;20.50;55.50;;;;;;5017480;28;20195;-69
2022/11/02 12:33:48;;;;;;;1.73;1.45;;;20.60;55.60;;;;;;5018354;28;20287;-69
2022/11/02 12:36:21;;;;;;;1.98;1.30;;;20.60;55.30;;;;;;5017277;28;20558;-69
2022/11/02 12:39:01;;;;;;;1.52;1.20;;;20.60;55.30;;;;;;5035313;28;20219;-69
2022/11/02 12:41:38;;;;;;;2.53;1.45;;;20.60;55.20;;;;;;5017348;28;20196;-69
2022/11/02 12:44:13;;;;;;;1.05;1.00;;;20.60;55.10;;;;;;5017109;28;20192;-69
2022/11/02 12:46:43;;;;;;;1.25;1.15;;;20.60;55.10;;;;;;5017862;28;20206;-69
2022/11/02 12:49:26;;;;;;;2.13;1.40;;;20.60;55.10;;;;;;5017329;28;20220;-69
2022/11/02 12:51:57;;;;;;;1.80;1.20;;;20.60;55.10;;;;;;5017900;28;20202;-69
2022/11/02 12:54:26;;;;;;;1.67;1.40;;;20.50;55.30;;;;;;5016920;28;20401;-69
2022/11/02 12:56:53;;;;;;;1.73;1.38;;;20.50;55.30;;;;;;5016659;28;20196;-69
2022/11/02 12:59:22;;;;;;;1.70;1.20;;;20.40;55.30;;;;;;5034745;28;20246;-69
2022/11/02 13:01:53;;;;;;;1.50;1.40;;;20.40;55.30;;;;;;5016999;28;20576;-69
2022/11/02 13:04:21;;;;;;;2.90;1.42;;;20.40;55.60;;;;;;5017190;28;20188;-69
2022/11/02 13:06:50;;;;;;;2.08;1.23;;;20.40;55.50;;;;;;5034596;28;20196;-69
2022/11/02 13:09:21;;;;;;;1.35;1.25;;;20.40;55.60;;;;;;5017514;28;20261;-69
2022/11/02 13:11:50;;;;;;;2.35;1.13;;;20.40;55.60;;;;;;5017141;28;20269;-69